Time;durP1;ratioP1;P1;durP2;ratioP2;P2;SDS_P1;SDS_P2;PMS_P1;PMS_P2;Temp;Humidity;BMP_temperature;BMP_pressure;BME280_temperature;BME280_humidity;BME280_pressure;Samples;Min_cycle;Max_cycle;Signal;HPM_P1;HPM_P2
2023/07/18 00:01:24;;;;;;;8.50;2.90;;;;;;;22.96;40.08;96780.91;5049760;28;20914;-68
2023/07/18 00:03:50;;;;;;;4.97;3.30;;;;;;;22.85;40.18;96772.97;5049350;28;20486;-68
2023/07/18 00:06:17;;;;;;;5.00;2.80;;;;;;;22.75;40.81;96774.78;5049028;28;20531;-68
2023/07/18 00:08:43;;;;;;;4.50;4.10;;;;;;;22.82;40.30;96786.63;5049886;28;20690;-67
2023/07/18 00:11:09;;;;;;;5.93;3.50;;;;;;;22.78;40.12;96785.19;5054687;28;20429;-68
2023/07/18 00:13:34;;;;;;;6.37;3.40;;;;;;;22.98;39.45;96784.31;5057919;28;20208;-68
2023/07/18 00:15:59;;;;;;;6.70;3.77;;;;;;;23.07;38.96;96788.03;5053300;28;20178;-69
2023/07/18 00:18:25;;;;;;;13.70;3.80;;;;;;;22.91;39.65;96775.09;5049685;28;20199;-69
2023/07/18 00:20:50;;;;;;;5.53;3.23;;;;;;;22.73;39.41;96782.94;5049694;28;20167;-68
2023/07/18 00:23:15;;;;;;;3.40;3.10;;;;;;;22.45;40.13;96792.47;5049074;28;20273;-68
2023/07/18 00:25:41;;;;;;;4.73;3.47;;;;;;;22.34;40.86;96795.22;5049237;28;20179;-69
2023/07/18 00:28:09;;;;;;;6.63;2.57;;;;;;;21.98;41.58;96795.50;5049586;28;20163;-68
2023/07/18 00:30:34;;;;;;;5.00;3.00;;;;;;;21.97;41.62;96792.97;5049441;28;20178;-68
2023/07/18 00:33:00;;;;;;;6.07;2.77;;;;;;;21.94;41.88;96798.53;5049120;28;20785;-68
2023/07/18 00:35:27;;;;;;;4.83;3.20;;;;;;;22.04;41.79;96791.47;5048535;28;20179;-68
2023/07/18 00:37:52;;;;;;;4.10;3.17;;;;;;;22.07;41.98;96793.88;5048749;28;20719;-66
2023/07/18 00:40:18;;;;;;;4.50;3.23;;;;;;;21.85;42.13;96785.94;5048458;28;20442;-67
2023/07/18 00:42:47;;;;;;;11.63;3.50;;;;;;;21.91;42.86;96793.47;5048444;28;20194;-68
2023/07/18 00:45:13;;;;;;;7.30;3.43;;;;;;;22.07;42.40;96785.84;5048516;28;20538;-67
2023/07/18 00:47:41;;;;;;;7.37;4.00;;;;;;;22.18;42.17;96779.59;5048604;28;20413;-69
2023/07/18 00:50:08;;;;;;;4.60;3.53;;;;;;;22.18;42.35;96780.47;5030310;28;20452;-68
2023/07/18 00:52:47;;;;;;;6.60;2.90;;;;;;;22.19;42.67;96782.13;5027770;28;20514;-68
2023/07/18 00:55:13;;;;;;;5.83;3.60;;;;;;;22.25;42.44;96777.28;5028412;28;20465;-69
2023/07/18 00:57:40;;;;;;;6.53;3.07;;;;;;;22.19;42.91;96771.44;5028090;28;20465;-68
2023/07/18 01:00:17;;;;;;;7.07;3.03;;;;;;;22.17;43.43;96772.56;5027917;28;20402;-69
2023/07/18 01:02:44;;;;;;;4.80;2.87;;;;;;;22.11;43.52;96767.72;5028050;28;20414;-68
2023/07/18 01:05:11;;;;;;;21.43;4.63;;;;;;;22.28;42.99;96766.34;5027883;28;20825;-68
2023/07/18 01:07:37;;;;;;;5.17;3.10;;;;;;;22.20;43.55;96769.63;5027808;28;20410;-70
2023/07/18 01:10:37;;;;;;;16.60;4.60;;;;;;;22.23;43.41;96764.06;5027324;28;20408;-67
2023/07/18 01:13:03;;;;;;;23.40;5.00;;;;;;;22.27;43.64;96768.16;4994901;28;20453;-68
2023/07/18 01:15:33;;;;;;;10.30;3.53;;;;;;;22.31;43.63;96763.41;5027844;28;20414;-68
2023/07/18 01:18:01;;;;;;;4.10;3.40;;;;;;;22.07;43.70;96764.47;5027670;28;20205;-68
2023/07/18 01:20:28;;;;;;;6.10;3.10;;;;;;;21.90;44.13;96754.38;5027448;28;20452;-70
2023/07/18 01:22:58;;;;;;;4.60;2.80;;;;;;;21.89;44.34;96758.84;5027580;28;20521;-67
2023/07/18 01:25:24;;;;;;;5.23;3.73;;;;;;;21.97;44.30;96751.03;5027927;28;21112;-69
2023/07/18 01:27:51;;;;;;;13.27;3.73;;;;;;;21.90;44.01;96754.38;5027887;28;20412;-68
2023/07/18 01:30:19;;;;;;;5.30;3.40;;;;;;;21.81;44.26;96750.63;5027524;28;20180;-68
2023/07/18 01:32:48;;;;;;;4.57;2.67;;;;;;;21.79;44.44;96749.91;5027576;28;20426;-68
2023/07/18 01:35:15;;;;;;;6.07;3.10;;;;;;;21.91;44.19;96746.22;5027696;28;20417;-68
2023/07/18 01:37:44;;;;;;;4.63;3.10;;;;;;;21.78;44.53;96750.91;5027394;28;20833;-68
2023/07/18 01:40:20;;;;;;;4.97;3.53;;;;;;;21.87;44.65;96751.94;5027074;28;20415;-68
2023/07/18 01:42:53;;;;;;;6.50;4.27;;;;;;;21.87;44.75;96755.44;5027453;28;21195;-68
2023/07/18 01:45:23;;;;;;;7.47;3.40;;;;;;;22.02;44.89;96741.81;5027237;28;20399;-67
2023/07/18 01:47:49;;;;;;;6.63;3.43;;;;;;;22.11;44.44;96747.22;5026985;28;20493;-69
2023/07/18 01:50:16;;;;;;;6.47;4.17;;;;;;;22.16;44.41;96746.81;5045706;28;20785;-68
2023/07/18 01:52:41;;;;;;;5.70;4.00;;;;;;;22.30;43.80;96743.84;5046697;28;20433;-68
2023/07/18 01:55:07;;;;;;;12.70;3.87;;;;;;;22.09;44.32;96751.84;5046605;28;20405;-68
2023/07/18 01:57:35;;;;;;;14.60;4.20;;;;;;;22.02;44.10;96748.00;5046601;28;20232;-68
2023/07/18 02:00:01;;;;;;;11.13;4.40;;;;;;;22.05;43.41;96752.22;5028875;28;20171;-66
2023/07/18 02:02:28;;;;;;;9.93;4.27;;;;;;;22.15;43.45;96747.78;5047078;28;20413;-68
2023/07/18 02:04:53;;;;;;;28.63;6.20;;;;;;;22.19;43.43;96750.06;5047588;28;20413;-68
2023/07/18 02:07:18;;;;;;;9.17;4.97;;;;;;;22.19;43.50;96739.38;5046909;28;20400;-68
2023/07/18 02:09:44;;;;;;;4.57;3.63;;;;;;;22.28;43.42;96748.47;5046692;28;20238;-68
2023/07/18 02:12:09;;;;;;;4.17;3.10;;;;;;;22.35;43.18;96748.81;5047113;28;20538;-69
2023/07/18 02:14:38;;;;;;;5.00;3.43;;;;;;;22.37;43.40;96739.66;5046389;28;20365;-69
2023/07/18 02:17:04;;;;;;;4.90;3.73;;;;;;;22.28;43.67;96736.94;5046727;28;20218;-70
2023/07/18 02:19:29;;;;;;;10.20;4.00;;;;;;;22.08;44.59;96742.09;5046177;28;20463;-70
2023/07/18 02:21:54;;;;;;;9.50;3.27;;;;;;;22.17;44.53;96740.47;5046357;28;20777;-69
2023/07/18 02:24:20;;;;;;;5.83;4.30;;;;;;;22.06;44.73;96740.53;5046125;28;20797;-69
2023/07/18 02:26:45;;;;;;;10.97;4.57;;;;;;;22.04;44.92;96740.69;5046381;28;20174;-69
2023/07/18 02:29:13;;;;;;;5.60;3.73;;;;;;;22.16;44.67;96736.97;5046083;28;20201;-68
2023/07/18 02:31:41;;;;;;;14.03;4.03;;;;;;;22.18;44.49;96737.69;5046528;28;20537;-69
2023/07/18 02:34:07;;;;;;;4.47;3.03;;;;;;;22.02;45.03;96736.47;5046191;28;20440;-70
2023/07/18 02:36:32;;;;;;;3.80;3.33;;;;;;;21.98;44.86;96733.19;5046522;28;20409;-70
2023/07/18 02:38:58;;;;;;;5.00;3.60;;;;;;;22.12;44.26;96737.38;5046703;28;20170;-69
2023/07/18 02:41:24;;;;;;;5.00;3.67;;;;;;;21.98;44.69;96735.84;5047157;28;20213;-68
2023/07/18 02:43:49;;;;;;;7.00;3.80;;;;;;;21.88;44.85;96746.47;5046237;28;20429;-70
2023/07/18 02:46:15;;;;;;;9.70;3.90;;;;;;;21.83;45.12;96737.13;5028047;28;20178;-69
2023/07/18 02:48:41;;;;;;;4.43;3.50;;;;;;;21.71;45.20;96733.69;5040038;28;20175;-68
2023/07/18 02:51:10;;;;;;;5.70;3.90;;;;;;;21.73;45.23;96740.59;5026028;28;20690;-69
2023/07/18 02:53:35;;;;;;;11.00;3.47;;;;;;;21.78;45.27;96743.72;5025940;28;20426;-67
2023/07/18 02:56:01;;;;;;;8.70;4.40;;;;;;;21.78;45.34;96733.03;5026064;28;20493;-68
2023/07/18 02:58:27;;;;;;;18.30;4.83;;;;;;;21.89;45.16;96732.13;5025818;28;20195;-69
2023/07/18 03:00:52;;;;;;;44.70;7.13;;;;;;;21.71;45.41;96734.53;5025708;28;20789;-69
2023/07/18 03:03:18;;;;;;;16.93;4.87;;;;;;;21.79;45.47;96731.22;5025744;28;20238;-69
2023/07/18 03:05:43;;;;;;;8.83;3.87;;;;;;;21.77;45.81;96726.00;5026159;28;20179;-69
2023/07/18 03:08:09;;;;;;;7.50;3.80;;;;;;;21.86;45.85;96728.88;5026314;28;20175;-67
2023/07/18 03:10:35;;;;;;;11.03;4.20;;;;;;;;;;5025746;28;20259;-69
2023/07/18 03:13:01;;;;;;;8.63;4.23;;;;;;;21.77;46.43;96726.00;5025913;28;20708;-70
2023/07/18 03:15:26;;;;;;;18.60;6.70;;;;;;;21.79;46.31;96728.53;5028259;28;20415;-68
2023/07/18 03:17:51;;;;;;;31.20;5.23;;;;;;;21.75;46.16;96730.59;5030242;28;20734;-68
2023/07/18 03:20:17;;;;;;;10.27;3.70;;;;;;;21.72;46.24;96740.72;5029736;28;20194;-69
2023/07/18 03:22:48;;;;;;;15.80;5.50;;;;;;;21.62;46.45;96734.47;5029807;28;20195;-68
2023/07/18 03:25:14;;;;;;;21.53;5.17;;;;;;;21.55;46.57;96736.78;5029771;28;20915;-69
2023/07/18 03:27:40;;;;;;;11.27;4.87;;;;;;;21.55;46.64;96734.13;5029754;28;20436;-68
2023/07/18 03:30:06;;;;;;;7.10;3.70;;;;;;;21.69;46.12;96741.81;5029325;28;20410;-68
2023/07/18 03:32:32;;;;;;;4.30;3.27;;;;;;;21.44;46.60;96729.66;5029804;28;20587;-68
2023/07/18 03:34:59;;;;;;;6.60;3.70;;;;;;;21.54;46.27;96732.41;5029690;28;20898;-67
2023/07/18 03:37:25;;;;;;;9.43;3.20;;;;;;;21.61;46.51;96736.25;5029510;28;20487;-68
2023/07/18 03:39:50;;;;;;;18.40;4.97;;;;;;;21.55;46.43;96736.78;5029754;28;21126;-66
2023/07/18 03:42:16;;;;;;;16.17;4.30;;;;;;;21.44;46.44;96726.13;5030188;28;20444;-69
2023/07/18 03:44:41;;;;;;;51.97;7.67;;;;;;;21.45;46.13;96728.69;5030001;28;20195;-69
2023/07/18 03:47:07;;;;;;;25.23;5.53;;;;;;;21.36;46.30;96719.56;5029729;28;20225;-69
2023/07/18 03:49:32;;;;;;;37.23;6.03;;;;;;;21.23;46.81;96720.69;5042493;28;20194;-69
2023/07/18 03:51:57;;;;;;;7.93;3.23;;;;;;;21.06;47.15;96722.06;5052031;28;20182;-70
2023/07/18 03:54:23;;;;;;;8.60;4.10;;;;;;;21.34;46.40;96724.19;5049789;28;20739;-69
2023/07/18 03:56:48;;;;;;;15.37;4.93;;;;;;;21.40;46.75;96722.84;5048998;28;20178;-69
2023/07/18 03:59:13;;;;;;;20.90;4.30;;;;;;;21.20;46.66;96727.13;5048782;28;20174;-71
2023/07/18 04:01:39;;;;;;;13.03;4.73;;;;;;;21.39;45.94;96725.63;5049264;28;20758;-70
2023/07/18 04:04:04;;;;;;;19.03;5.37;;;;;;;21.51;45.74;96721.97;5048757;28;20220;-67
2023/07/18 04:06:30;;;;;;;22.20;4.30;;;;;;;21.51;46.03;96721.97;5048818;28;20175;-69
2023/07/18 04:08:55;;;;;;;25.90;6.00;;;;;;;21.40;45.63;96716.69;5048596;28;20659;-69
2023/07/18 04:11:20;;;;;;;43.97;6.80;;;;;;;21.45;45.63;96712.66;5048544;28;20539;-69
2023/07/18 04:13:46;;;;;;;8.70;4.50;;;;;;;21.69;45.18;96703.59;5048812;28;20194;-69
2023/07/18 04:16:12;;;;;;;17.30;4.70;;;;;;;21.65;45.07;96719.00;5048950;28;20175;-69
2023/07/18 04:18:37;;;;;;;14.33;3.80;;;;;;;21.63;44.96;96706.75;5048794;28;20210;-67
2023/07/18 04:21:03;;;;;;;12.50;5.10;;;;;;;21.47;45.54;96710.72;5054546;28;20781;-68
2023/07/18 04:23:29;;;;;;;14.33;6.50;;;;;;;21.69;45.18;96714.28;5048620;28;20198;-68
2023/07/18 04:25:59;;;;;;;26.13;6.93;;;;;;;21.56;45.83;96711.75;5048671;28;20175;-68
2023/07/18 04:28:34;;;;;;;72.00;12.13;;;;;;;21.44;45.84;96715.44;5048730;28;20415;-68
2023/07/18 04:31:01;;;;;;;31.43;7.40;;;;;;;21.55;45.48;96710.91;5048312;28;20416;-69
2023/07/18 04:33:27;;;;;;;12.47;5.67;;;;;;;21.70;45.00;96706.09;5048668;28;20966;-67
2023/07/18 04:35:53;;;;;;;8.23;5.40;;;;;;;21.72;44.61;96706.84;5048561;28;20498;-67
2023/07/18 04:38:18;;;;;;;11.40;5.80;;;;;;;21.82;44.47;96708.72;5048589;28;20452;-69
2023/07/18 04:40:44;;;;;;;16.53;6.57;;;;;;;22.10;43.63;96710.75;5047766;28;20297;-68
2023/07/18 04:43:10;;;;;;;14.57;5.53;;;;;;;21.82;44.39;96706.91;5048093;28;20195;-68
2023/07/18 04:45:44;;;;;;;26.67;6.37;;;;;;;22.17;43.71;96701.22;5049294;28;20175;-71
2023/07/18 04:48:10;;;;;;;14.50;5.77;;;;;;;22.50;43.00;96702.00;5046443;28;20174;-69
2023/07/18 04:50:36;;;;;;;13.23;6.83;;;;;;;22.68;42.65;96698.69;5028156;28;20915;-71
2023/07/18 04:53:02;;;;;;;12.40;7.37;;;;;;;22.81;42.29;96697.47;5028412;28;20541;-67
2023/07/18 04:55:27;;;;;;;15.00;7.00;;;;;;;22.91;42.04;96696.66;5028555;28;20870;-69
2023/07/18 04:57:53;;;;;;;17.80;6.73;;;;;;;22.94;42.02;96699.91;5028587;28;20191;-70
2023/07/18 05:00:19;;;;;;;22.20;7.07;;;;;;;23.01;41.56;96692.22;5028280;28;20251;-70
2023/07/18 05:02:44;;;;;;;43.20;8.40;;;;;;;23.13;41.46;96696.47;5026091;28;20202;-68
2023/07/18 05:05:10;;;;;;;39.10;8.83;;;;;;;23.19;41.15;96700.41;5027729;28;20279;-70
2023/07/18 05:07:35;;;;;;;47.30;12.20;;;;;;;23.29;40.88;96698.59;5027935;28;20175;-69
2023/07/18 05:10:00;;;;;;;41.70;8.90;;;;;;;23.40;40.57;96693.09;5027321;28;20925;-69
2023/07/18 05:12:26;;;;;;;10.00;7.90;;;;;;;23.49;40.04;96695.94;5027632;28;20266;-69
2023/07/18 05:14:51;;;;;;;11.77;8.40;;;;;;;23.70;39.59;96693.97;5027504;28;20222;-69
2023/07/18 05:17:17;;;;;;;18.43;10.27;;;;;;;23.91;39.22;96691.16;5036265;28;20659;-68
2023/07/18 05:19:42;;;;;;;15.17;10.27;;;;;;;23.85;39.49;96687.19;5037326;28;20171;-68
2023/07/18 05:22:07;;;;;;;11.07;7.53;;;;;;;23.76;39.43;96688.06;5027851;28;20183;-66
2023/07/18 05:24:33;;;;;;;30.70;7.60;;;;;;;23.80;38.74;96692.16;5027907;28;20708;-68
2023/07/18 05:26:58;;;;;;;15.40;5.33;;;;;;;23.91;38.27;96683.13;5027589;28;20172;-69
2023/07/18 05:29:24;;;;;;;11.20;5.30;;;;;;;24.04;38.16;96685.50;5027456;28;20365;-67
2023/07/18 05:31:50;;;;;;;12.40;5.47;;;;;;;24.17;37.96;96686.03;5027787;28;20171;-68
2023/07/18 05:34:15;;;;;;;11.33;6.17;;;;;;;24.26;37.34;96690.53;5028380;28;20202;-68
2023/07/18 05:36:41;;;;;;;12.53;6.23;;;;;;;24.35;37.35;96685.28;5027505;28;20777;-68
2023/07/18 05:39:06;;;;;;;17.93;10.67;;;;;;;24.47;37.37;96681.44;5026185;28;20179;-68
2023/07/18 05:41:31;;;;;;;21.97;8.00;;;;;;;24.48;37.01;96677.78;5026048;28;20206;-68
2023/07/18 05:43:57;;;;;;;6.60;4.90;;;;;;;24.59;36.75;96677.59;5027153;28;20196;-67
2023/07/18 05:46:22;;;;;;;5.67;3.53;;;;;;;24.78;36.71;96668.63;5028002;28;20210;-67
2023/07/18 05:48:47;;;;;;;33.20;5.70;;;;;;;24.82;36.51;96669.16;5026569;28;20633;-67
2023/07/18 05:51:13;;;;;;;6.20;3.93;;;;;;;24.67;36.49;96668.81;5027224;28;20199;-66
2023/07/18 05:53:38;;;;;;;14.77;3.50;;;;;;;24.55;36.43;96670.84;5027036;28;20199;-68
2023/07/18 05:56:04;;;;;;;7.67;2.87;;;;;;;24.31;36.41;96660.59;5027069;28;20525;-65
2023/07/18 05:58:29;;;;;;;5.00;2.87;;;;;;;24.39;34.89;96659.84;5026994;28;20207;-67
2023/07/18 06:00:55;;;;;;;7.73;2.90;;;;;;;24.41;34.75;96663.25;5026679;28;20163;-67
2023/07/18 06:03:22;;;;;;;9.83;3.30;;;;;;;24.61;36.02;96662.19;5027307;28;20207;-68
2023/07/18 06:05:53;;;;;;;10.87;3.30;;;;;;;24.67;35.81;96661.59;5027215;28;20179;-67
2023/07/18 06:08:19;;;;;;;13.47;3.50;;;;;;;24.51;35.56;96658.69;5027261;28;20414;-67
2023/07/18 06:10:44;;;;;;;7.30;3.10;;;;;;;24.27;35.45;96662.72;5027256;28;20515;-67
2023/07/18 06:13:10;;;;;;;5.00;2.30;;;;;;;24.59;34.85;96661.50;5027783;28;20301;-67
2023/07/18 06:15:36;;;;;;;6.80;2.07;;;;;;;24.35;34.51;96661.97;5029224;28;20183;-68
2023/07/18 06:18:01;;;;;;;9.73;2.50;;;;;;;24.01;35.23;96659.81;5028324;28;20466;-67
2023/07/18 06:20:26;;;;;;;8.80;2.60;;;;;;;24.13;35.09;96646.25;5026832;28;20226;-67
2023/07/18 06:22:52;;;;;;;8.77;2.63;;;;;;;24.17;35.18;96648.50;5026798;28;20683;-68
2023/07/18 06:25:18;;;;;;;20.03;4.17;;;;;;;24.33;35.70;96650.56;5026448;28;20258;-68
2023/07/18 06:27:43;;;;;;;15.10;4.63;;;;;;;24.42;35.66;96641.63;5026636;28;20175;-67
2023/07/18 06:30:09;;;;;;;6.60;2.67;;;;;;;24.54;36.29;96646.84;5026374;28;20226;-67
2023/07/18 06:32:35;;;;;;;8.53;3.23;;;;;;;24.48;35.96;96641.06;5026627;28;20692;-66
2023/07/18 06:35:03;;;;;;;4.50;2.90;;;;;;;24.61;36.19;96640.72;5026449;28;20171;-66
2023/07/18 06:37:29;;;;;;;7.10;2.47;;;;;;;23.90;35.54;96637.69;5027247;28;20453;-66
2023/07/18 06:39:55;;;;;;;6.67;2.43;;;;;;;23.12;36.00;96641.22;5026648;28;20476;-67
2023/07/18 06:42:21;;;;;;;8.43;2.70;;;;;;;23.58;36.27;96639.69;5026651;28;21318;-67
2023/07/18 06:44:46;;;;;;;5.47;2.40;;;;;;;23.17;35.54;96639.00;5025238;28;20414;-68
2023/07/18 06:47:12;;;;;;;10.33;2.47;;;;;;;23.27;34.15;96648.84;5030822;28;20607;-68
2023/07/18 06:49:37;;;;;;;3.70;2.40;;;;;;;22.85;35.48;96641.84;5025134;28;20238;-67
2023/07/18 06:52:03;;;;;;;5.17;2.50;;;;;;;23.02;36.05;96641.22;5023237;28;20186;-68
2023/07/18 06:54:30;;;;;;;6.07;2.53;;;;;;;23.37;35.24;96639.00;5031927;28;20195;-66
2023/07/18 06:56:56;;;;;;;4.83;2.50;;;;;;;23.37;34.89;96637.16;5026895;28;20182;-68
2023/07/18 06:59:24;;;;;;;6.03;2.70;;;;;;;24.06;34.62;96630.72;5045274;28;20409;-66
2023/07/18 07:01:49;;;;;;;10.53;3.30;;;;;;;24.51;33.76;96629.19;5022815;28;20211;-72
2023/07/18 07:04:15;;;;;;;6.93;2.60;;;;;;;23.92;33.81;96623.16;5005619;28;20761;-68
2023/07/18 07:06:43;;;;;;;6.67;2.40;;;;;;;23.57;34.74;96629.09;5006254;28;20184;-71
2023/07/18 07:09:15;;;;;;;5.00;2.27;;;;;;;23.67;35.25;96624.59;5014254;28;20225;-70
2023/07/18 07:11:43;;;;;;;4.07;2.50;;;;;;;23.73;34.59;96629.38;5047526;28;20409;-72
2023/07/18 07:14:09;;;;;;;10.03;2.60;;;;;;;24.49;33.91;96629.34;5045528;28;20844;-71
2023/07/18 07:16:37;;;;;;;5.60;2.60;;;;;;;24.61;33.15;96624.63;5036434;28;20462;-71
2023/07/18 07:19:02;;;;;;;5.43;2.70;;;;;;;24.65;32.43;96622.50;5025102;28;20210;-70
2023/07/18 07:21:28;;;;;;;3.90;2.57;;;;;;;24.39;33.22;96615.09;5025236;28;21007;-71
2023/07/18 07:23:54;;;;;;;17.40;4.10;;;;;;;24.99;33.08;96611.13;5025238;28;20187;-70
2023/07/18 07:26:19;;;;;;;8.30;2.60;;;;;;;25.09;32.31;96602.00;5024978;28;20178;-71
2023/07/18 07:28:45;;;;;;;4.57;2.57;;;;;;;24.64;32.43;96607.41;5024893;28;20913;-71
2023/07/18 07:31:11;;;;;;;5.13;2.13;;;;;;;24.91;31.95;96599.28;5025159;28;20986;-71
2023/07/18 07:33:36;;;;;;;5.13;2.20;;;;;;;24.75;32.82;96601.81;5025530;28;20548;-70
2023/07/18 07:36:02;;;;;;;13.83;3.47;;;;;;;25.11;31.79;96594.66;5025242;28;20180;-71
2023/07/18 07:38:27;;;;;;;8.03;2.97;;;;;;;25.50;31.46;96593.50;5025167;28;20965;-71
2023/07/18 07:40:53;;;;;;;5.03;2.10;;;;;;;25.01;32.29;96587.66;5024975;28;20545;-70
2023/07/18 07:43:21;;;;;;;14.43;2.83;;;;;;;24.78;33.11;96587.22;5025899;28;20187;-75
2023/07/18 07:45:46;;;;;;;10.70;3.20;;;;;;;25.67;31.66;96581.03;5026730;28;20175;-72
2023/07/18 07:48:12;;;;;;;3.60;2.30;;;;;;;25.23;31.66;96586.38;5028135;28;20408;-73
2023/07/18 07:50:37;;;;;;;14.07;2.80;;;;;;;24.82;32.85;96585.94;5044441;28;20810;-70
2023/07/18 07:53:03;;;;;;;24.63;4.67;;;;;;;25.71;31.67;96582.41;5045368;28;20702;-73
2023/07/18 07:55:28;;;;;;;10.50;2.50;;;;;;;25.59;31.51;96587.19;5045162;28;20536;-71
2023/07/18 07:57:54;;;;;;;3.77;2.20;;;;;;;24.78;33.24;96593.47;5044719;28;20202;-71
2023/07/18 08:00:19;;;;;;;5.70;2.37;;;;;;;25.34;33.11;96584.28;5045083;28;20186;-71
2023/07/18 08:02:45;;;;;;;6.73;2.80;;;;;;;25.55;33.05;96583.97;5048061;28;20194;-71
2023/07/18 08:05:11;;;;;;;8.63;3.00;;;;;;;25.31;32.88;96581.09;5048950;28;20177;-70
2023/07/18 08:07:36;;;;;;;6.77;3.10;;;;;;;25.23;32.79;96567.56;5049130;28;20411;-72
2023/07/18 08:10:03;;;;;;;11.30;2.70;;;;;;;25.75;32.69;96556.91;5049427;28;20399;-71
2023/07/18 08:12:28;;;;;;;6.47;2.90;;;;;;;26.02;32.83;96547.84;5049490;28;20182;-71
2023/07/18 08:14:53;;;;;;;6.07;2.40;;;;;;;26.29;32.26;96544.13;5049360;28;20409;-72
2023/07/18 08:17:19;;;;;;;8.57;2.60;;;;;;;25.92;32.32;96549.81;5028947;28;20744;-71
2023/07/18 08:19:44;;;;;;;9.60;2.70;;;;;;;26.20;32.41;96547.78;5022607;28;20188;-71
2023/07/18 08:22:10;;;;;;;5.33;2.30;;;;;;;25.87;32.99;96561.06;5027085;28;20179;-71
2023/07/18 08:24:36;;;;;;;3.43;2.30;;;;;;;25.49;33.75;96552.38;5029117;28;20261;-73
2023/07/18 08:27:01;;;;;;;11.40;3.00;;;;;;;25.68;33.73;96548.63;5024858;28;20303;-72
2023/07/18 08:29:28;;;;;;;4.17;2.80;;;;;;;25.30;33.98;96539.97;5018611;28;20623;-72
2023/07/18 08:31:56;;;;;;;5.60;2.80;;;;;;;25.78;33.31;96527.84;5023085;28;20238;-71
2023/07/18 08:34:22;;;;;;;3.43;2.20;;;;;;;25.82;33.56;96527.53;5018239;28;20945;-72
2023/07/18 08:36:47;;;;;;;7.10;3.53;;;;;;;26.23;32.77;96531.31;5017421;28;20437;-70
2023/07/18 08:39:16;;;;;;;9.10;3.40;;;;;;;26.29;33.00;96527.13;5026477;28;20258;-70
2023/07/18 08:41:47;;;;;;;6.03;2.67;;;;;;;26.22;32.82;96512.63;5024269;28;20821;-71
2023/07/18 08:44:15;;;;;;;4.97;3.03;;;;;;;26.45;32.54;96513.72;5023423;28;20456;-71
2023/07/18 08:46:47;;;;;;;7.30;3.80;;;;;;;26.29;32.79;96511.84;5020215;28;20506;-70
2023/07/18 08:49:16;;;;;;;7.20;3.30;;;;;;;25.93;33.82;96513.84;5023664;28;20480;-71
2023/07/18 08:51:42;;;;;;;3.47;2.43;;;;;;;25.82;33.83;96523.00;5035926;28;20900;-72
2023/07/18 08:54:09;;;;;;;8.63;3.23;;;;;;;26.85;32.35;96509.47;5028520;28;20909;-71
2023/07/18 08:56:34;;;;;;;7.03;2.33;;;;;;;26.87;32.08;96507.47;5044080;28;20464;-71
2023/07/18 08:59:01;;;;;;;4.80;2.60;;;;;;;26.55;32.82;96509.09;5048494;28;20454;-69
2023/07/18 09:01:26;;;;;;;4.43;2.93;;;;;;;26.38;32.95;96502.75;5049074;28;20234;-72
2023/07/18 09:03:51;;;;;;;5.73;3.03;;;;;;;25.89;34.28;96499.03;5048380;28;20444;-71
2023/07/18 09:06:21;;;;;;;12.10;3.53;;;;;;;26.88;32.94;96494.81;5038680;28;20179;-69
2023/07/18 09:08:47;;;;;;;4.90;3.27;;;;;;;26.62;32.29;96501.19;5017787;28;20172;-71
2023/07/18 09:11:14;;;;;;;6.03;3.53;;;;;;;26.07;33.68;96498.97;5026722;28;20874;-67
2023/07/18 09:13:41;;;;;;;5.00;2.60;;;;;;;26.31;32.78;96488.28;5027261;28;20288;-69
2023/07/18 09:16:13;;;;;;;8.73;3.97;;;;;;;26.51;32.73;96493.41;5021241;28;20462;-70
2023/07/18 09:18:52;;;;;;;8.03;3.43;;;;;;;26.36;33.20;96488.66;5027291;28;20453;-69
2023/07/18 09:21:19;;;;;;;12.30;3.70;;;;;;;27.21;31.72;96482.25;5023131;28;20442;-71
2023/07/18 09:23:45;;;;;;;13.73;4.47;;;;;;;27.50;31.32;96489.81;5028068;28;20427;-68
2023/07/18 09:26:14;;;;;;;5.40;3.20;;;;;;;26.60;32.64;96490.59;5027759;28;20445;-69
2023/07/18 09:28:40;;;;;;;7.17;3.30;;;;;;;26.84;32.82;96483.56;5027390;28;20426;-70
2023/07/18 09:31:33;;;;;;;6.77;3.60;;;;;;;26.67;33.32;96474.63;5027532;28;20433;-72
2023/07/18 09:33:59;;;;;;;7.33;4.00;;;;;;;26.99;32.73;96484.56;5028973;28;20465;-72
2023/07/18 09:36:25;;;;;;;7.63;3.37;;;;;;;27.08;32.36;96480.03;5029967;28;20850;-70
2023/07/18 09:38:51;;;;;;;13.90;4.40;;;;;;;26.46;34.05;96483.13;5039762;28;20559;-68
2023/07/18 09:41:18;;;;;;;6.03;3.90;;;;;;;26.71;33.70;96481.34;5049824;28;20222;-71
2023/07/18 09:43:44;;;;;;;6.43;3.90;;;;;;;26.98;33.02;96477.50;5049833;28;20433;-70
2023/07/18 09:46:14;;;;;;;3.73;2.93;;;;;;;27.09;33.44;96480.88;5029662;28;20935;-73
2023/07/18 09:48:41;;;;;;;6.57;4.03;;;;;;;27.02;33.49;96481.56;5043359;28;20504;-72
2023/07/18 09:51:14;;;;;;;5.27;3.70;;;;;;;27.33;33.12;96480.03;5044198;28;20421;-77
2023/07/18 09:53:44;;;;;;;8.33;3.60;;;;;;;27.40;32.62;96472.97;5029689;28;20494;-70
2023/07/18 09:56:14;;;;;;;7.83;4.10;;;;;;;27.74;32.25;96480.81;5028003;28;20509;-70
2023/07/18 09:58:41;;;;;;;7.50;4.50;;;;;;;27.99;31.87;96473.53;5029076;28;20510;-67
2023/07/18 10:01:11;;;;;;;10.27;4.20;;;;;;;28.40;31.70;96473.34;5027648;28;20508;-71
2023/07/18 10:03:39;;;;;;;4.70;4.20;;;;;;;28.61;31.39;96485.44;5027515;28;20525;-71
2023/07/18 10:06:12;;;;;;;5.73;4.47;;;;;;;28.85;31.15;96484.41;5028454;28;20398;-71
2023/07/18 10:08:40;;;;;;;8.00;4.10;;;;;;;28.82;31.02;96487.44;5028887;28;21031;-71
2023/07/18 10:11:09;;;;;;;7.67;3.80;;;;;;;28.00;31.96;96480.59;5027939;28;20425;-72
2023/07/18 10:14:05;;;;;;;7.80;3.60;;;;;;;27.48;33.23;96482.91;5027334;28;20969;-69
2023/07/18 10:16:34;;;;;;;16.57;4.53;;;;;;;27.27;33.51;96483.44;5027973;28;20417;-70
2023/07/18 10:19:16;;;;;;;17.50;5.20;;;;;;;27.84;32.81;96483.34;5026752;28;20607;-69
2023/07/18 10:21:45;;;;;;;24.67;6.03;;;;;;;28.25;32.13;96496.69;5027654;28;20415;-70
2023/07/18 10:24:24;;;;;;;9.67;3.90;;;;;;;28.24;31.67;96512.03;5027150;28;20456;-72
2023/07/18 10:26:55;;;;;;;8.40;3.80;;;;;;;27.48;32.92;96520.66;5013521;28;20438;-69
2023/07/18 10:29:21;;;;;;;8.80;4.60;;;;;;;27.19;33.92;96527.34;5024077;28;20887;-71
2023/07/18 10:31:47;;;;;;;5.30;4.20;;;;;;;27.21;33.83;96504.66;5028042;28;20413;-71
2023/07/18 10:34:14;;;;;;;4.53;4.13;;;;;;;27.35;33.89;96510.38;5026687;28;20755;-70
2023/07/18 10:36:40;;;;;;;11.57;4.50;;;;;;;27.51;34.18;96496.88;5027557;28;20198;-69
2023/07/18 10:39:12;;;;;;;16.97;6.90;;;;;;;27.23;34.16;96497.22;5027403;28;20587;-71
2023/07/18 10:41:45;;;;;;;11.47;4.70;;;;;;;27.36;34.47;96522.84;5027317;28;20417;-71
2023/07/18 10:44:13;;;;;;;10.10;4.33;;;;;;;27.22;34.61;96484.78;5028701;28;20897;-71
2023/07/18 10:46:40;;;;;;;7.13;4.00;;;;;;;26.61;35.68;96448.38;5027928;28;20406;-69
2023/07/18 10:49:08;;;;;;;5.90;4.00;;;;;;;26.63;35.44;96416.75;5028004;28;20552;-71
2023/07/18 10:51:35;;;;;;;7.07;4.00;;;;;;;26.56;35.70;96394.19;5028915;28;20446;-72
2023/07/18 10:54:00;;;;;;;7.70;4.73;;;;;;;26.97;35.15;96407.66;5027159;28;20483;-71
2023/07/18 10:56:27;;;;;;;10.17;4.30;;;;;;;27.17;34.53;96414.38;5026577;28;20172;-70
2023/07/18 10:58:55;;;;;;;27.00;8.10;;;;;;;26.99;34.76;96414.53;5027041;28;20235;-73
2023/07/18 11:01:23;;;;;;;11.33;4.63;;;;;;;26.69;35.47;96410.66;5027053;28;20979;-72
2023/07/18 11:03:48;;;;;;;18.40;6.37;;;;;;;26.69;35.69;96412.53;5027178;28;20488;-71
2023/07/18 11:06:15;;;;;;;9.77;5.00;;;;;;;26.89;35.62;96394.19;5026778;28;20986;-72
2023/07/18 11:08:45;;;;;;;36.87;6.00;;;;;;;27.26;35.35;96366.75;5026532;28;20163;-70
2023/07/18 11:11:10;;;;;;;14.27;6.30;;;;;;;27.51;34.30;96329.75;5026460;28;20504;-70
2023/07/18 11:13:37;;;;;;;16.87;5.47;;;;;;;27.52;34.79;96300.94;5009437;28;20977;-71
2023/07/18 11:16:07;;;;;;;10.50;4.60;;;;;;;27.17;34.95;96270.75;5027066;28;20286;-71
2023/07/18 11:18:38;;;;;;;7.00;4.67;;;;;;;27.12;35.22;96254.25;5027253;28;20463;-71
2023/07/18 11:21:07;;;;;;;11.87;4.23;;;;;;;26.79;36.43;96254.38;5027358;28;20453;-70
2023/07/18 11:23:34;;;;;;;221.30;36.70;;;;;;;27.10;36.00;96281.38;5027177;28;20429;-71
2023/07/18 11:26:08;;;;;;;18.30;5.60;;;;;;;27.04;36.04;96299.06;5026998;28;20468;-71
2023/07/18 11:28:34;;;;;;;44.97;11.53;;;;;;;27.07;36.10;96324.81;5027069;28;20708;-70